sensor_id;sensor_type;location;lat;lon;timestamp;P1;durP1;ratioP1;P2;durP2;ratioP2
8552;SDS011;73833;51.014;16.950;2023-11-22T00:01:13;10.95;;;7.90;;
8552;SDS011;73833;51.014;16.950;2023-11-22T00:03:38;9.70;;;7.78;;
8552;SDS011;73833;51.014;16.950;2023-11-22T00:06:04;9.52;;;7.93;;
8552;SDS011;73833;51.014;16.950;2023-11-22T00:08:29;8.57;;;7.68;;
8552;SDS011;73833;51.014;16.950;2023-11-22T00:10:55;12.38;;;7.88;;
8552;SDS011;73833;51.014;16.950;2023-11-22T00:13:20;9.05;;;7.80;;
8552;SDS011;73833;51.014;16.950;2023-11-22T00:15:45;10.77;;;8.40;;
8552;SDS011;73833;51.014;16.950;2023-11-22T00:18:10;11.20;;;8.25;;
8552;SDS011;73833;51.014;16.950;2023-11-22T00:20:36;9.48;;;8.50;;
8552;SDS011;73833;51.014;16.950;2023-11-22T00:23:01;9.15;;;8.23;;
8552;SDS011;73833;51.014;16.950;2023-11-22T00:25:28;9.27;;;8.07;;
8552;SDS011;73833;51.014;16.950;2023-11-22T00:27:53;9.63;;;8.20;;
8552;SDS011;73833;51.014;16.950;2023-11-22T00:30:18;9.60;;;8.30;;
8552;SDS011;73833;51.014;16.950;2023-11-22T00:32:44;8.57;;;7.70;;
8552;SDS011;73833;51.014;16.950;2023-11-22T00:35:09;9.20;;;8.30;;
8552;SDS011;73833;51.014;16.950;2023-11-22T00:37:34;11.13;;;8.30;;
8552;SDS011;73833;51.014;16.950;2023-11-22T00:40:02;9.50;;;8.57;;
8552;SDS011;73833;51.014;16.950;2023-11-22T00:42:39;11.02;;;8.50;;
8552;SDS011;73833;51.014;16.950;2023-11-22T00:45:06;8.77;;;7.88;;
8552;SDS011;73833;51.014;16.950;2023-11-22T00:47:32;9.30;;;7.93;;
8552;SDS011;73833;51.014;16.950;2023-11-22T00:49:57;9.75;;;8.75;;
8552;SDS011;73833;51.014;16.950;2023-11-22T00:52:23;9.95;;;8.57;;
8552;SDS011;73833;51.014;16.950;2023-11-22T00:54:48;9.82;;;8.82;;
8552;SDS011;73833;51.014;16.950;2023-11-22T00:57:14;9.23;;;8.20;;
8552;SDS011;73833;51.014;16.950;2023-11-22T00:59:40;9.73;;;8.73;;
8552;SDS011;73833;51.014;16.950;2023-11-22T01:02:05;9.27;;;8.38;;
8552;SDS011;73833;51.014;16.950;2023-11-22T01:04:30;8.82;;;8.02;;
8552;SDS011;73833;51.014;16.950;2023-11-22T01:06:59;9.30;;;8.35;;
8552;SDS011;73833;51.014;16.950;2023-11-22T01:09:24;8.95;;;8.10;;
8552;SDS011;73833;51.014;16.950;2023-11-22T01:11:49;9.48;;;8.57;;
8552;SDS011;73833;51.014;16.950;2023-11-22T01:14:14;9.18;;;8.00;;
8552;SDS011;73833;51.014;16.950;2023-11-22T01:16:39;9.27;;;8.38;;
8552;SDS011;73833;51.014;16.950;2023-11-22T01:19:05;9.65;;;8.75;;
8552;SDS011;73833;51.014;16.950;2023-11-22T01:21:30;9.70;;;8.70;;
8552;SDS011;73833;51.014;16.950;2023-11-22T01:23:56;8.73;;;7.97;;
8552;SDS011;73833;51.014;16.950;2023-11-22T01:26:23;9.57;;;8.55;;
8552;SDS011;73833;51.014;16.950;2023-11-22T01:28:48;9.38;;;8.48;;
8552;SDS011;73833;51.014;16.950;2023-11-22T01:31:14;9.20;;;8.40;;
8552;SDS011;73833;51.014;16.950;2023-11-22T01:33:39;9.05;;;8.15;;
8552;SDS011;73833;51.014;16.950;2023-11-22T01:36:05;10.85;;;9.00;;
8552;SDS011;73833;51.014;16.950;2023-11-22T01:38:30;9.40;;;8.52;;
8552;SDS011;73833;51.014;16.950;2023-11-22T01:40:55;9.30;;;8.35;;
8552;SDS011;73833;51.014;16.950;2023-11-22T01:43:21;9.13;;;8.32;;
8552;SDS011;73833;51.014;16.950;2023-11-22T01:45:49;9.77;;;8.70;;
8552;SDS011;73833;51.014;16.950;2023-11-22T01:48:14;9.77;;;8.63;;
8552;SDS011;73833;51.014;16.950;2023-11-22T01:50:40;9.55;;;8.65;;
8552;SDS011;73833;51.014;16.950;2023-11-22T01:53:06;10.23;;;9.05;;
8552;SDS011;73833;51.014;16.950;2023-11-22T01:55:31;11.73;;;8.43;;
8552;SDS011;73833;51.014;16.950;2023-11-22T01:57:57;9.68;;;8.68;;
8552;SDS011;73833;51.014;16.950;2023-11-22T02:03:26;9.98;;;9.05;;
8552;SDS011;73833;51.014;16.950;2023-11-22T02:05:51;9.25;;;8.45;;
8552;SDS011;73833;51.014;16.950;2023-11-22T02:08:19;9.55;;;8.10;;
8552;SDS011;73833;51.014;16.950;2023-11-22T02:10:44;8.68;;;7.78;;
8552;SDS011;73833;51.014;16.950;2023-11-22T02:13:10;9.90;;;8.90;;
8552;SDS011;73833;51.014;16.950;2023-11-22T02:15:35;13.35;;;8.10;;
8552;SDS011;73833;51.014;16.950;2023-11-22T02:18:00;8.57;;;7.78;;
8552;SDS011;73833;51.014;16.950;2023-11-22T02:20:26;9.48;;;8.55;;
8552;SDS011;73833;51.014;16.950;2023-11-22T02:22:51;9.95;;;8.95;;
8552;SDS011;73833;51.014;16.950;2023-11-22T02:25:18;9.57;;;8.43;;
8552;SDS011;73833;51.014;16.950;2023-11-22T02:27:43;9.23;;;8.43;;
8552;SDS011;73833;51.014;16.950;2023-11-22T02:30:09;8.52;;;7.72;;
8552;SDS011;73833;51.014;16.950;2023-11-22T02:32:36;9.40;;;8.35;;
8552;SDS011;73833;51.014;16.950;2023-11-22T02:35:01;8.48;;;7.75;;
8552;SDS011;73833;51.014;16.950;2023-11-22T02:37:26;9.60;;;8.63;;
8552;SDS011;73833;51.014;16.950;2023-11-22T02:42:36;8.65;;;7.85;;
8552;SDS011;73833;51.014;16.950;2023-11-22T02:45:01;10.18;;;8.80;;
8552;SDS011;73833;51.014;16.950;2023-11-22T02:47:26;8.57;;;7.65;;
8552;SDS011;73833;51.014;16.950;2023-11-22T02:49:51;9.15;;;8.25;;
8552;SDS011;73833;51.014;16.950;2023-11-22T02:52:17;8.93;;;8.02;;
8552;SDS011;73833;51.014;16.950;2023-11-22T02:54:43;9.57;;;8.68;;
8552;SDS011;73833;51.014;16.950;2023-11-22T02:57:08;8.90;;;8.00;;
8552;SDS011;73833;51.014;16.950;2023-11-22T02:59:34;9.45;;;8.65;;
8552;SDS011;73833;51.014;16.950;2023-11-22T03:01:59;9.43;;;8.52;;
8552;SDS011;73833;51.014;16.950;2023-11-22T03:04:24;9.10;;;8.30;;
8552;SDS011;73833;51.014;16.950;2023-11-22T03:06:49;9.20;;;8.40;;
8552;SDS011;73833;51.014;16.950;2023-11-22T03:09:14;9.57;;;8.68;;
8552;SDS011;73833;51.014;16.950;2023-11-22T03:11:40;9.05;;;8.18;;
8552;SDS011;73833;51.014;16.950;2023-11-22T03:14:05;8.75;;;7.95;;
8552;SDS011;73833;51.014;16.950;2023-11-22T03:16:31;9.73;;;8.73;;
8552;SDS011;73833;51.014;16.950;2023-11-22T03:18:56;10.02;;;8.98;;
8552;SDS011;73833;51.014;16.950;2023-11-22T03:21:23;10.05;;;9.05;;
8552;SDS011;73833;51.014;16.950;2023-11-22T03:23:51;10.95;;;9.90;;
8552;SDS011;73833;51.014;16.950;2023-11-22T03:26:16;9.90;;;8.88;;
8552;SDS011;73833;51.014;16.950;2023-11-22T03:28:41;10.10;;;9.20;;
8552;SDS011;73833;51.014;16.950;2023-11-22T03:31:06;9.43;;;8.52;;
8552;SDS011;73833;51.014;16.950;2023-11-22T03:33:33;10.43;;;9.43;;
8552;SDS011;73833;51.014;16.950;2023-11-22T03:35:58;9.02;;;8.23;;
8552;SDS011;73833;51.014;16.950;2023-11-22T03:38:24;9.38;;;8.48;;
8552;SDS011;73833;51.014;16.950;2023-11-22T03:40:49;9.45;;;8.52;;
8552;SDS011;73833;51.014;16.950;2023-11-22T03:43:14;9.13;;;8.32;;
8552;SDS011;73833;51.014;16.950;2023-11-22T03:45:40;9.73;;;8.75;;
8552;SDS011;73833;51.014;16.950;2023-11-22T03:48:05;9.75;;;8.75;;
8552;SDS011;73833;51.014;16.950;2023-11-22T03:50:30;9.23;;;8.43;;
8552;SDS011;73833;51.014;16.950;2023-11-22T03:52:55;9.77;;;8.85;;
8552;SDS011;73833;51.014;16.950;2023-11-22T03:55:21;9.05;;;8.25;;
8552;SDS011;73833;51.014;16.950;2023-11-22T03:57:46;9.80;;;8.82;;
8552;SDS011;73833;51.014;16.950;2023-11-22T04:00:11;9.75;;;8.85;;
8552;SDS011;73833;51.014;16.950;2023-11-22T04:02:37;9.57;;;8.63;;
8552;SDS011;73833;51.014;16.950;2023-11-22T04:05:02;8.60;;;7.90;;
8552;SDS011;73833;51.014;16.950;2023-11-22T04:07:28;8.70;;;7.90;;
8552;SDS011;73833;51.014;16.950;2023-11-22T04:09:53;9.70;;;8.80;;
8552;SDS011;73833;51.014;16.950;2023-11-22T04:12:19;9.13;;;7.97;;
8552;SDS011;73833;51.014;16.950;2023-11-22T04:14:44;8.95;;;8.05;;
8552;SDS011;73833;51.014;16.950;2023-11-22T04:17:10;8.60;;;7.72;;
8552;SDS011;73833;51.014;16.950;2023-11-22T04:19:35;8.18;;;7.35;;
8552;SDS011;73833;51.014;16.950;2023-11-22T04:22:00;8.80;;;7.97;;
8552;SDS011;73833;51.014;16.950;2023-11-22T04:24:26;8.32;;;7.63;;
8552;SDS011;73833;51.014;16.950;2023-11-22T04:26:51;9.52;;;8.35;;
8552;SDS011;73833;51.014;16.950;2023-11-22T04:29:16;8.85;;;7.95;;
8552;SDS011;73833;51.014;16.950;2023-11-22T04:31:42;8.77;;;7.97;;
8552;SDS011;73833;51.014;16.950;2023-11-22T04:34:07;8.77;;;7.97;;
8552;SDS011;73833;51.014;16.950;2023-11-22T04:36:32;8.80;;;7.90;;
8552;SDS011;73833;51.014;16.950;2023-11-22T04:38:58;8.65;;;7.85;;
8552;SDS011;73833;51.014;16.950;2023-11-22T04:41:23;8.73;;;7.93;;
8552;SDS011;73833;51.014;16.950;2023-11-22T04:43:50;8.43;;;7.65;;
8552;SDS011;73833;51.014;16.950;2023-11-22T04:46:15;8.20;;;7.40;;
8552;SDS011;73833;51.014;16.950;2023-11-22T04:48:40;8.40;;;7.63;;
8552;SDS011;73833;51.014;16.950;2023-11-22T04:51:09;8.32;;;7.53;;
8552;SDS011;73833;51.014;16.950;2023-11-22T04:53:34;8.35;;;7.65;;
8552;SDS011;73833;51.014;16.950;2023-11-22T04:56:00;8.25;;;7.45;;
8552;SDS011;73833;51.014;16.950;2023-11-22T04:58:27;8.07;;;7.28;;
8552;SDS011;73833;51.014;16.950;2023-11-22T05:00:52;8.52;;;7.72;;
8552;SDS011;73833;51.014;16.950;2023-11-22T05:03:17;7.93;;;7.13;;
8552;SDS011;73833;51.014;16.950;2023-11-22T05:05:42;8.07;;;7.35;;
8552;SDS011;73833;51.014;16.950;2023-11-22T05:08:07;7.88;;;7.18;;
8552;SDS011;73833;51.014;16.950;2023-11-22T05:10:33;7.90;;;7.20;;
8552;SDS011;73833;51.014;16.950;2023-11-22T05:12:58;8.18;;;7.38;;
8552;SDS011;73833;51.014;16.950;2023-11-22T05:15:26;7.72;;;7.03;;
8552;SDS011;73833;51.014;16.950;2023-11-22T05:17:51;7.68;;;6.97;;
8552;SDS011;73833;51.014;16.950;2023-11-22T05:20:16;8.23;;;7.43;;
8552;SDS011;73833;51.014;16.950;2023-11-22T05:22:41;7.88;;;7.13;;
8552;SDS011;73833;51.014;16.950;2023-11-22T05:25:07;7.15;;;6.60;;
8552;SDS011;73833;51.014;16.950;2023-11-22T05:27:32;7.13;;;6.55;;
8552;SDS011;73833;51.014;16.950;2023-11-22T05:29:57;8.45;;;7.50;;
8552;SDS011;73833;51.014;16.950;2023-11-22T05:32:23;7.85;;;7.05;;
8552;SDS011;73833;51.014;16.950;2023-11-22T05:34:48;7.18;;;6.57;;
8552;SDS011;73833;51.014;16.950;2023-11-22T05:37:14;9.00;;;7.07;;
8552;SDS011;73833;51.014;16.950;2023-11-22T05:39:39;7.80;;;7.03;;
8552;SDS011;73833;51.014;16.950;2023-11-22T05:42:04;7.57;;;6.88;;
8552;SDS011;73833;51.014;16.950;2023-11-22T05:44:29;7.63;;;6.93;;
8552;SDS011;73833;51.014;16.950;2023-11-22T05:46:54;7.90;;;7.20;;
8552;SDS011;73833;51.014;16.950;2023-11-22T05:49:20;7.28;;;6.57;;
8552;SDS011;73833;51.014;16.950;2023-11-22T05:51:45;7.50;;;6.80;;
8552;SDS011;73833;51.014;16.950;2023-11-22T05:54:10;7.00;;;6.30;;
8552;SDS011;73833;51.014;16.950;2023-11-22T05:56:37;7.55;;;6.80;;
8552;SDS011;73833;51.014;16.950;2023-11-22T05:59:02;7.15;;;6.50;;
8552;SDS011;73833;51.014;16.950;2023-11-22T06:01:28;7.75;;;6.82;;
8552;SDS011;73833;51.014;16.950;2023-11-22T06:03:53;6.88;;;6.20;;
8552;SDS011;73833;51.014;16.950;2023-11-22T06:06:19;6.85;;;6.25;;
8552;SDS011;73833;51.014;16.950;2023-11-22T06:08:46;7.53;;;6.80;;
8552;SDS011;73833;51.014;16.950;2023-11-22T06:11:12;7.18;;;6.47;;
8552;SDS011;73833;51.014;16.950;2023-11-22T06:13:38;7.57;;;6.88;;
8552;SDS011;73833;51.014;16.950;2023-11-22T06:16:04;6.60;;;6.00;;
8552;SDS011;73833;51.014;16.950;2023-11-22T06:18:29;9.98;;;6.85;;
8552;SDS011;73833;51.014;16.950;2023-11-22T06:20:55;7.05;;;6.45;;
8552;SDS011;73833;51.014;16.950;2023-11-22T06:23:20;7.78;;;6.22;;
8552;SDS011;73833;51.014;16.950;2023-11-22T06:25:45;7.28;;;6.60;;
8552;SDS011;73833;51.014;16.950;2023-11-22T06:28:10;7.32;;;6.57;;
8552;SDS011;73833;51.014;16.950;2023-11-22T06:30:35;10.18;;;6.25;;
8552;SDS011;73833;51.014;16.950;2023-11-22T06:33:01;23.17;;;11.33;;
8552;SDS011;73833;51.014;16.950;2023-11-22T06:35:26;38.67;;;16.60;;
8552;SDS011;73833;51.014;16.950;2023-11-22T06:37:52;30.35;;;12.98;;
8552;SDS011;73833;51.014;16.950;2023-11-22T06:40:17;31.60;;;12.63;;
8552;SDS011;73833;51.014;16.950;2023-11-22T06:42:43;40.10;;;12.95;;
8552;SDS011;73833;51.014;16.950;2023-11-22T06:45:08;32.15;;;12.23;;
8552;SDS011;73833;51.014;16.950;2023-11-22T06:47:38;33.80;;;12.70;;
8552;SDS011;73833;51.014;16.950;2023-11-22T06:50:03;27.02;;;12.32;;
8552;SDS011;73833;51.014;16.950;2023-11-22T06:52:34;24.10;;;11.77;;
8552;SDS011;73833;51.014;16.950;2023-11-22T06:54:59;28.33;;;12.52;;
8552;SDS011;73833;51.014;16.950;2023-11-22T06:57:24;24.17;;;12.15;;
8552;SDS011;73833;51.014;16.950;2023-11-22T06:59:54;25.45;;;12.43;;
8552;SDS011;73833;51.014;16.950;2023-11-22T07:02:19;24.92;;;11.68;;
8552;SDS011;73833;51.014;16.950;2023-11-22T07:04:44;26.73;;;11.95;;
8552;SDS011;73833;51.014;16.950;2023-11-22T07:07:09;19.20;;;10.88;;
8552;SDS011;73833;51.014;16.950;2023-11-22T07:09:36;27.15;;;11.65;;
8552;SDS011;73833;51.014;16.950;2023-11-22T07:12:01;28.27;;;12.45;;
8552;SDS011;73833;51.014;16.950;2023-11-22T07:14:27;20.02;;;10.40;;
8552;SDS011;73833;51.014;16.950;2023-11-22T07:16:54;24.95;;;11.75;;
8552;SDS011;73833;51.014;16.950;2023-11-22T07:19:20;18.83;;;10.48;;
8552;SDS011;73833;51.014;16.950;2023-11-22T07:21:46;19.83;;;10.90;;
8552;SDS011;73833;51.014;16.950;2023-11-22T07:24:13;20.77;;;9.82;;
8552;SDS011;73833;51.014;16.950;2023-11-22T07:26:40;19.00;;;10.07;;
8552;SDS011;73833;51.014;16.950;2023-11-22T07:29:07;19.55;;;10.30;;
8552;SDS011;73833;51.014;16.950;2023-11-22T07:31:32;16.10;;;9.30;;
8552;SDS011;73833;51.014;16.950;2023-11-22T07:33:57;16.25;;;9.00;;
8552;SDS011;73833;51.014;16.950;2023-11-22T07:36:23;18.55;;;10.10;;
8552;SDS011;73833;51.014;16.950;2023-11-22T07:38:48;15.82;;;9.68;;
8552;SDS011;73833;51.014;16.950;2023-11-22T07:41:13;24.15;;;9.77;;
8552;SDS011;73833;51.014;16.950;2023-11-22T07:43:39;20.45;;;9.35;;
8552;SDS011;73833;51.014;16.950;2023-11-22T07:46:05;21.00;;;10.52;;
8552;SDS011;73833;51.014;16.950;2023-11-22T07:48:30;18.52;;;10.52;;
8552;SDS011;73833;51.014;16.950;2023-11-22T07:50:55;14.60;;;9.98;;
8552;SDS011;73833;51.014;16.950;2023-11-22T07:53:21;18.08;;;10.73;;
8552;SDS011;73833;51.014;16.950;2023-11-22T07:55:46;12.48;;;9.73;;
8552;SDS011;73833;51.014;16.950;2023-11-22T07:58:12;14.65;;;9.95;;
8552;SDS011;73833;51.014;16.950;2023-11-22T08:00:37;14.88;;;9.55;;
8552;SDS011;73833;51.014;16.950;2023-11-22T08:03:02;15.93;;;8.73;;
8552;SDS011;73833;51.014;16.950;2023-11-22T08:05:31;12.70;;;8.90;;
8552;SDS011;73833;51.014;16.950;2023-11-22T08:08:04;17.42;;;9.77;;
8552;SDS011;73833;51.014;16.950;2023-11-22T08:10:33;12.75;;;8.90;;
8552;SDS011;73833;51.014;16.950;2023-11-22T08:12:59;10.30;;;7.80;;
8552;SDS011;73833;51.014;16.950;2023-11-22T08:15:25;14.05;;;8.73;;
8552;SDS011;73833;51.014;16.950;2023-11-22T08:17:50;13.63;;;8.35;;
8552;SDS011;73833;51.014;16.950;2023-11-22T08:20:15;15.73;;;8.35;;
8552;SDS011;73833;51.014;16.950;2023-11-22T08:22:43;11.27;;;8.10;;
8552;SDS011;73833;51.014;16.950;2023-11-22T08:25:10;17.10;;;9.15;;
8552;SDS011;73833;51.014;16.950;2023-11-22T08:27:37;13.95;;;7.97;;
8552;SDS011;73833;51.014;16.950;2023-11-22T08:30:03;13.07;;;7.88;;
8552;SDS011;73833;51.014;16.950;2023-11-22T08:32:33;12.73;;;8.93;;
8552;SDS011;73833;51.014;16.950;2023-11-22T08:34:58;12.77;;;7.80;;
8552;SDS011;73833;51.014;16.950;2023-11-22T08:37:23;12.88;;;8.50;;
8552;SDS011;73833;51.014;16.950;2023-11-22T08:39:48;10.32;;;7.28;;
8552;SDS011;73833;51.014;16.950;2023-11-22T08:42:14;11.48;;;8.23;;
8552;SDS011;73833;51.014;16.950;2023-11-22T08:44:39;9.05;;;7.50;;
8552;SDS011;73833;51.014;16.950;2023-11-22T08:47:04;10.93;;;7.75;;
8552;SDS011;73833;51.014;16.950;2023-11-22T08:49:30;11.52;;;7.55;;
8552;SDS011;73833;51.014;16.950;2023-11-22T08:51:56;13.73;;;7.85;;
8552;SDS011;73833;51.014;16.950;2023-11-22T08:54:21;13.45;;;7.05;;
8552;SDS011;73833;51.014;16.950;2023-11-22T08:56:46;11.45;;;7.68;;
8552;SDS011;73833;51.014;16.950;2023-11-22T08:59:12;9.18;;;7.45;;
8552;SDS011;73833;51.014;16.950;2023-11-22T09:01:37;13.18;;;7.20;;
8552;SDS011;73833;51.014;16.950;2023-11-22T09:04:02;13.18;;;7.85;;
8552;SDS011;73833;51.014;16.950;2023-11-22T09:06:28;12.27;;;7.90;;
8552;SDS011;73833;51.014;16.950;2023-11-22T09:08:54;13.85;;;7.60;;
8552;SDS011;73833;51.014;16.950;2023-11-22T09:11:19;14.32;;;7.97;;
8552;SDS011;73833;51.014;16.950;2023-11-22T09:13:47;14.95;;;7.07;;
8552;SDS011;73833;51.014;16.950;2023-11-22T09:16:12;8.23;;;6.70;;
8552;SDS011;73833;51.014;16.950;2023-11-22T09:18:38;13.15;;;6.50;;
8552;SDS011;73833;51.014;16.950;2023-11-22T09:21:03;8.23;;;6.90;;
8552;SDS011;73833;51.014;16.950;2023-11-22T09:23:29;9.23;;;6.75;;
8552;SDS011;73833;51.014;16.950;2023-11-22T09:25:55;10.82;;;7.57;;
8552;SDS011;73833;51.014;16.950;2023-11-22T09:28:20;8.48;;;7.07;;
8552;SDS011;73833;51.014;16.950;2023-11-22T09:30:46;9.55;;;7.15;;
8552;SDS011;73833;51.014;16.950;2023-11-22T09:33:16;9.07;;;6.47;;
8552;SDS011;73833;51.014;16.950;2023-11-22T09:35:42;8.27;;;7.05;;
8552;SDS011;73833;51.014;16.950;2023-11-22T09:38:09;9.02;;;6.35;;
8552;SDS011;73833;51.014;16.950;2023-11-22T09:40:49;9.38;;;6.80;;
8552;SDS011;73833;51.014;16.950;2023-11-22T09:43:14;11.10;;;6.82;;
8552;SDS011;73833;51.014;16.950;2023-11-22T09:45:43;8.90;;;6.90;;
8552;SDS011;73833;51.014;16.950;2023-11-22T09:48:14;8.85;;;6.85;;
8552;SDS011;73833;51.014;16.950;2023-11-22T09:50:50;9.40;;;6.32;;
8552;SDS011;73833;51.014;16.950;2023-11-22T09:53:22;11.18;;;6.70;;
8552;SDS011;73833;51.014;16.950;2023-11-22T09:55:47;13.23;;;7.22;;
8552;SDS011;73833;51.014;16.950;2023-11-22T09:58:12;10.07;;;6.68;;
8552;SDS011;73833;51.014;16.950;2023-11-22T10:00:39;9.65;;;6.50;;
8552;SDS011;73833;51.014;16.950;2023-11-22T10:03:06;9.50;;;6.30;;
8552;SDS011;73833;51.014;16.950;2023-11-22T10:05:31;7.82;;;6.57;;
8552;SDS011;73833;51.014;16.950;2023-11-22T10:07:56;7.07;;;6.40;;
8552;SDS011;73833;51.014;16.950;2023-11-22T10:10:22;6.38;;;5.75;;
8552;SDS011;73833;51.014;16.950;2023-11-22T10:12:48;7.60;;;6.82;;
8552;SDS011;73833;51.014;16.950;2023-11-22T10:15:13;8.65;;;7.00;;
8552;SDS011;73833;51.014;16.950;2023-11-22T10:17:39;8.77;;;6.80;;
8552;SDS011;73833;51.014;16.950;2023-11-22T10:20:05;9.80;;;6.72;;
8552;SDS011;73833;51.014;16.950;2023-11-22T10:22:43;10.10;;;6.80;;
8552;SDS011;73833;51.014;16.950;2023-11-22T10:25:09;8.27;;;6.47;;
8552;SDS011;73833;51.014;16.950;2023-11-22T10:27:35;8.77;;;6.18;;
8552;SDS011;73833;51.014;16.950;2023-11-22T10:30:02;9.02;;;6.65;;
8552;SDS011;73833;51.014;16.950;2023-11-22T10:32:28;8.00;;;6.67;;
8552;SDS011;73833;51.014;16.950;2023-11-22T10:34:53;8.40;;;6.70;;
8552;SDS011;73833;51.014;16.950;2023-11-22T10:37:18;7.65;;;6.78;;
8552;SDS011;73833;51.014;16.950;2023-11-22T10:39:50;7.90;;;6.85;;
8552;SDS011;73833;51.014;16.950;2023-11-22T10:42:15;8.38;;;6.38;;
8552;SDS011;73833;51.014;16.950;2023-11-22T10:44:41;8.32;;;6.90;;
8552;SDS011;73833;51.014;16.950;2023-11-22T10:47:07;8.63;;;6.88;;
8552;SDS011;73833;51.014;16.950;2023-11-22T10:49:33;9.38;;;6.65;;
8552;SDS011;73833;51.014;16.950;2023-11-22T10:51:58;7.53;;;6.20;;
8552;SDS011;73833;51.014;16.950;2023-11-22T10:54:24;7.13;;;6.38;;
8552;SDS011;73833;51.014;16.950;2023-11-22T10:56:53;8.45;;;6.47;;
8552;SDS011;73833;51.014;16.950;2023-11-22T10:59:20;7.30;;;6.32;;
8552;SDS011;73833;51.014;16.950;2023-11-22T11:01:47;6.60;;;6.00;;
8552;SDS011;73833;51.014;16.950;2023-11-22T11:04:24;14.35;;;6.85;;
8552;SDS011;73833;51.014;16.950;2023-11-22T11:06:53;8.00;;;6.20;;
8552;SDS011;73833;51.014;16.950;2023-11-22T11:09:19;9.63;;;7.07;;
8552;SDS011;73833;51.014;16.950;2023-11-22T11:11:46;7.60;;;6.82;;
8552;SDS011;73833;51.014;16.950;2023-11-22T11:14:12;7.70;;;6.65;;
8552;SDS011;73833;51.014;16.950;2023-11-22T11:16:39;9.55;;;6.93;;
8552;SDS011;73833;51.014;16.950;2023-11-22T11:19:06;7.88;;;6.68;;
8552;SDS011;73833;51.014;16.950;2023-11-22T11:21:32;10.15;;;6.43;;
8552;SDS011;73833;51.014;16.950;2023-11-22T11:23:58;10.77;;;6.30;;
8552;SDS011;73833;51.014;16.950;2023-11-22T11:26:28;6.88;;;6.15;;
8552;SDS011;73833;51.014;16.950;2023-11-22T11:29:33;7.65;;;6.60;;
8552;SDS011;73833;51.014;16.950;2023-11-22T11:31:59;7.18;;;5.78;;
8552;SDS011;73833;51.014;16.950;2023-11-22T11:34:24;7.28;;;6.45;;
8552;SDS011;73833;51.014;16.950;2023-11-22T11:36:53;7.45;;;6.75;;
8552;SDS011;73833;51.014;16.950;2023-11-22T11:39:25;7.55;;;6.70;;
8552;SDS011;73833;51.014;16.950;2023-11-22T11:41:56;6.97;;;6.28;;
8552;SDS011;73833;51.014;16.950;2023-11-22T11:44:32;7.55;;;6.72;;
8552;SDS011;73833;51.014;16.950;2023-11-22T11:46:58;8.65;;;6.32;;
8552;SDS011;73833;51.014;16.950;2023-11-22T11:49:23;13.93;;;5.78;;
8552;SDS011;73833;51.014;16.950;2023-11-22T11:51:50;6.65;;;5.47;;
8552;SDS011;73833;51.014;16.950;2023-11-22T11:54:15;6.75;;;6.07;;
8552;SDS011;73833;51.014;16.950;2023-11-22T11:56:41;9.17;;;6.90;;
8552;SDS011;73833;51.014;16.950;2023-11-22T11:59:07;8.88;;;6.63;;
8552;SDS011;73833;51.014;16.950;2023-11-22T12:01:32;8.93;;;5.50;;
8552;SDS011;73833;51.014;16.950;2023-11-22T12:04:00;6.50;;;5.30;;
8552;SDS011;73833;51.014;16.950;2023-11-22T12:06:25;6.22;;;5.57;;
8552;SDS011;73833;51.014;16.950;2023-11-22T12:08:51;7.25;;;5.90;;
8552;SDS011;73833;51.014;16.950;2023-11-22T12:11:16;7.60;;;6.72;;
8552;SDS011;73833;51.014;16.950;2023-11-22T12:13:43;6.50;;;5.90;;
8552;SDS011;73833;51.014;16.950;2023-11-22T12:16:13;10.07;;;5.60;;
8552;SDS011;73833;51.014;16.950;2023-11-22T12:18:48;7.25;;;5.53;;
8552;SDS011;73833;51.014;16.950;2023-11-22T12:21:14;8.40;;;6.20;;
8552;SDS011;73833;51.014;16.950;2023-11-22T12:23:40;6.15;;;5.57;;
8552;SDS011;73833;51.014;16.950;2023-11-22T12:26:09;10.02;;;5.97;;
8552;SDS011;73833;51.014;16.950;2023-11-22T12:28:36;6.25;;;5.65;;
8552;SDS011;73833;51.014;16.950;2023-11-22T12:31:11;5.78;;;5.25;;
8552;SDS011;73833;51.014;16.950;2023-11-22T12:33:36;8.95;;;5.57;;
8552;SDS011;73833;51.014;16.950;2023-11-22T12:36:04;7.72;;;5.82;;
8552;SDS011;73833;51.014;16.950;2023-11-22T12:38:30;6.38;;;5.75;;
8552;SDS011;73833;51.014;16.950;2023-11-22T12:40:58;8.57;;;7.47;;
8552;SDS011;73833;51.014;16.950;2023-11-22T12:43:23;10.13;;;8.18;;
8552;SDS011;73833;51.014;16.950;2023-11-22T12:48:25;8.75;;;7.95;;
8552;SDS011;73833;51.014;16.950;2023-11-22T12:50:52;17.00;;;7.68;;
8552;SDS011;73833;51.014;16.950;2023-11-22T12:53:18;7.80;;;7.00;;
8552;SDS011;73833;51.014;16.950;2023-11-22T12:55:47;14.23;;;7.13;;
8552;SDS011;73833;51.014;16.950;2023-11-22T12:58:20;7.93;;;6.47;;
8552;SDS011;73833;51.014;16.950;2023-11-22T13:00:46;6.97;;;6.22;;
8552;SDS011;73833;51.014;16.950;2023-11-22T13:03:11;9.57;;;8.13;;
8552;SDS011;73833;51.014;16.950;2023-11-22T13:05:37;9.20;;;8.30;;
8552;SDS011;73833;51.014;16.950;2023-11-22T13:08:03;10.88;;;8.95;;
8552;SDS011;73833;51.014;16.950;2023-11-22T13:10:31;9.25;;;8.35;;
8552;SDS011;73833;51.014;16.950;2023-11-22T13:12:56;10.93;;;7.45;;
8552;SDS011;73833;51.014;16.950;2023-11-22T13:15:22;8.20;;;6.60;;
8552;SDS011;73833;51.014;16.950;2023-11-22T13:17:51;8.57;;;7.72;;
8552;SDS011;73833;51.014;16.950;2023-11-22T13:20:20;9.07;;;6.93;;
8552;SDS011;73833;51.014;16.950;2023-11-22T13:22:47;7.90;;;7.10;;
8552;SDS011;73833;51.014;16.950;2023-11-22T13:25:13;9.40;;;6.90;;
8552;SDS011;73833;51.014;16.950;2023-11-22T13:27:38;7.95;;;6.60;;
8552;SDS011;73833;51.014;16.950;2023-11-22T13:30:04;7.80;;;6.72;;
8552;SDS011;73833;51.014;16.950;2023-11-22T13:32:32;17.40;;;7.45;;
8552;SDS011;73833;51.014;16.950;2023-11-22T13:34:57;8.43;;;7.57;;
8552;SDS011;73833;51.014;16.950;2023-11-22T13:37:24;8.00;;;7.30;;
8552;SDS011;73833;51.014;16.950;2023-11-22T13:39:50;19.00;;;7.72;;
8552;SDS011;73833;51.014;16.950;2023-11-22T13:42:15;7.88;;;7.07;;
8552;SDS011;73833;51.014;16.950;2023-11-22T13:44:40;7.72;;;7.03;;
8552;SDS011;73833;51.014;16.950;2023-11-22T13:47:12;9.00;;;6.97;;
8552;SDS011;73833;51.014;16.950;2023-11-22T13:49:38;7.97;;;6.93;;
8552;SDS011;73833;51.014;16.950;2023-11-22T13:52:04;8.07;;;7.32;;
8552;SDS011;73833;51.014;16.950;2023-11-22T13:54:29;9.25;;;6.55;;
8552;SDS011;73833;51.014;16.950;2023-11-22T13:56:56;7.55;;;6.72;;
8552;SDS011;73833;51.014;16.950;2023-11-22T13:59:22;11.38;;;6.78;;
8552;SDS011;73833;51.014;16.950;2023-11-22T14:01:47;7.90;;;6.10;;
8552;SDS011;73833;51.014;16.950;2023-11-22T14:04:13;7.40;;;6.68;;
8552;SDS011;73833;51.014;16.950;2023-11-22T14:06:38;7.60;;;6.75;;
8552;SDS011;73833;51.014;16.950;2023-11-22T14:09:03;8.95;;;6.90;;
8552;SDS011;73833;51.014;16.950;2023-11-22T14:11:29;7.00;;;6.00;;
8552;SDS011;73833;51.014;16.950;2023-11-22T14:13:56;7.97;;;7.18;;
8552;SDS011;73833;51.014;16.950;2023-11-22T14:16:23;7.75;;;5.97;;
8552;SDS011;73833;51.014;16.950;2023-11-22T14:18:48;7.07;;;6.38;;
8552;SDS011;73833;51.014;16.950;2023-11-22T14:21:14;6.97;;;6.28;;
8552;SDS011;73833;51.014;16.950;2023-11-22T14:23:41;8.90;;;6.20;;
8552;SDS011;73833;51.014;16.950;2023-11-22T14:26:06;6.38;;;5.78;;
8552;SDS011;73833;51.014;16.950;2023-11-22T14:28:31;7.15;;;6.45;;
8552;SDS011;73833;51.014;16.950;2023-11-22T14:30:58;7.07;;;6.45;;
8552;SDS011;73833;51.014;16.950;2023-11-22T14:33:23;8.80;;;6.38;;
8552;SDS011;73833;51.014;16.950;2023-11-22T14:35:48;6.43;;;5.82;;
8552;SDS011;73833;51.014;16.950;2023-11-22T14:38:13;7.30;;;6.22;;
8552;SDS011;73833;51.014;16.950;2023-11-22T14:40:39;9.07;;;6.35;;
8552;SDS011;73833;51.014;16.950;2023-11-22T14:43:05;9.65;;;6.30;;
8552;SDS011;73833;51.014;16.950;2023-11-22T14:45:30;9.48;;;6.32;;